Accueil
METAR-TAF:

METAR-TAF

Aéroports :

Aéroport de Bari

Bari, Italie

latitude: 41-08N, longitude: 016-47E, altitude: 34 m

Observation

Le bulletin a été fait il y a 16 minutes, à 14:50 UTC
Vent 4 kt de nord-est, variant entre nord et est
Température 19°C
Humidité 64%
Pression 1027 hPa
Visibilité 10 km ou plus
pas de nuages en-dessous de 1500 mètres et pas de cumulonimbus.

METAR: LIBD 191450Z 04004KT 350V090 CAVOK 19/12 Q1027

Heure: 17:06 (15:06 UTC)

Prévision

Le bulletin a été fait il y a 4 heures et 6 minutes, à 11:00 UTC
Prévision valable du 19 à 12 UTC au 20 à 12 UTC
Vent 10 kt de nord
Visibilité 10 km ou plus
Quelques nuages à une hauteur de 4000 ft
Evoluant progressivement
du 19 à 16 UTC au 19 à 19 UTC
Vent 5 kt de direction variable

TAF: LIBD 191100Z 1912/2012 01010KT 9999 FEW040 BECMG 1916/1919 VRB05KT

Observations et prévisions météorologiques de plus de 4000 aéroports (messages METAR et TAF).

Les stations disponibles sont représentées par des disques jaunes et rouges sur la carte.

Passer la souris dessus pour voir le nom de la station.

Cliquer dessus pour voir les observations et prévisions météorologiques.

Pour changer de carte: cliquez sur les boutons verts avec une croix noire pour zoomer, sur le bouton vert avec un tiret pour effectuer un zoom arrière, ou sur les flèches vertes pour les cartes adjacentes.


METAR-TAF: